sensor_id;sensor_type;location;lat;lon;timestamp;P1;durP1;ratioP1;P2;durP2;ratioP2
10154;SDS011;5118;48.570;7.916;2023-04-12T00:00:55;6.93;;;2.73;;
10154;SDS011;5118;48.570;7.916;2023-04-12T00:03:23;5.07;;;2.90;;
10154;SDS011;5118;48.570;7.916;2023-04-12T00:05:52;5.90;;;2.90;;
10154;SDS011;5118;48.570;7.916;2023-04-12T00:08:22;5.93;;;2.97;;
10154;SDS011;5118;48.570;7.916;2023-04-12T00:10:52;4.77;;;2.67;;
10154;SDS011;5118;48.570;7.916;2023-04-12T00:13:20;4.77;;;2.93;;
10154;SDS011;5118;48.570;7.916;2023-04-12T00:15:48;7.10;;;3.00;;
10154;SDS011;5118;48.570;7.916;2023-04-12T00:18:17;7.33;;;3.37;;
10154;SDS011;5118;48.570;7.916;2023-04-12T00:20:45;8.57;;;3.60;;
10154;SDS011;5118;48.570;7.916;2023-04-12T00:23:13;7.47;;;3.23;;
10154;SDS011;5118;48.570;7.916;2023-04-12T00:25:44;5.93;;;3.07;;
10154;SDS011;5118;48.570;7.916;2023-04-12T00:28:12;5.47;;;2.80;;
10154;SDS011;5118;48.570;7.916;2023-04-12T00:30:42;6.73;;;3.13;;
10154;SDS011;5118;48.570;7.916;2023-04-12T00:33:11;6.40;;;3.10;;
10154;SDS011;5118;48.570;7.916;2023-04-12T00:35:39;7.27;;;3.30;;
10154;SDS011;5118;48.570;7.916;2023-04-12T00:38:08;6.47;;;3.00;;
10154;SDS011;5118;48.570;7.916;2023-04-12T00:40:39;5.13;;;2.60;;
10154;SDS011;5118;48.570;7.916;2023-04-12T00:43:09;4.77;;;2.90;;
10154;SDS011;5118;48.570;7.916;2023-04-12T00:45:41;5.53;;;2.90;;
10154;SDS011;5118;48.570;7.916;2023-04-12T00:48:10;4.60;;;2.50;;
10154;SDS011;5118;48.570;7.916;2023-04-12T00:50:38;5.67;;;3.00;;
10154;SDS011;5118;48.570;7.916;2023-04-12T00:53:10;4.70;;;2.93;;
10154;SDS011;5118;48.570;7.916;2023-04-12T00:55:40;4.43;;;2.67;;
10154;SDS011;5118;48.570;7.916;2023-04-12T00:58:13;4.50;;;2.53;;
10154;SDS011;5118;48.570;7.916;2023-04-12T01:00:42;5.23;;;2.90;;
10154;SDS011;5118;48.570;7.916;2023-04-12T01:03:16;4.23;;;2.67;;
10154;SDS011;5118;48.570;7.916;2023-04-12T01:05:51;5.07;;;2.63;;
10154;SDS011;5118;48.570;7.916;2023-04-12T01:08:33;5.50;;;2.70;;
10154;SDS011;5118;48.570;7.916;2023-04-12T01:11:12;4.50;;;2.50;;
10154;SDS011;5118;48.570;7.916;2023-04-12T01:13:48;5.63;;;2.70;;
10154;SDS011;5118;48.570;7.916;2023-04-12T01:16:23;4.63;;;2.57;;
10154;SDS011;5118;48.570;7.916;2023-04-12T01:19:00;4.30;;;2.60;;
10154;SDS011;5118;48.570;7.916;2023-04-12T01:21:35;5.43;;;2.97;;
10154;SDS011;5118;48.570;7.916;2023-04-12T01:24:17;3.87;;;2.60;;
10154;SDS011;5118;48.570;7.916;2023-04-12T01:26:54;5.03;;;2.80;;
10154;SDS011;5118;48.570;7.916;2023-04-12T01:29:27;5.93;;;2.80;;
10154;SDS011;5118;48.570;7.916;2023-04-12T01:31:57;3.57;;;2.30;;
10154;SDS011;5118;48.570;7.916;2023-04-12T01:34:28;6.37;;;2.50;;
10154;SDS011;5118;48.570;7.916;2023-04-12T01:37:00;5.20;;;2.67;;
10154;SDS011;5118;48.570;7.916;2023-04-12T01:39:30;4.27;;;2.30;;
10154;SDS011;5118;48.570;7.916;2023-04-12T01:42:01;4.30;;;2.60;;
10154;SDS011;5118;48.570;7.916;2023-04-12T01:44:31;5.03;;;2.60;;
10154;SDS011;5118;48.570;7.916;2023-04-12T01:46:59;4.57;;;2.63;;
10154;SDS011;5118;48.570;7.916;2023-04-12T01:49:29;4.37;;;2.50;;
10154;SDS011;5118;48.570;7.916;2023-04-12T01:52:05;5.63;;;2.90;;
10154;SDS011;5118;48.570;7.916;2023-04-12T01:54:37;5.90;;;2.60;;
10154;SDS011;5118;48.570;7.916;2023-04-12T01:57:08;5.27;;;2.90;;
10154;SDS011;5118;48.570;7.916;2023-04-12T01:59:40;5.23;;;2.83;;
10154;SDS011;5118;48.570;7.916;2023-04-12T02:02:10;4.67;;;2.53;;
10154;SDS011;5118;48.570;7.916;2023-04-12T02:04:39;3.97;;;2.80;;
10154;SDS011;5118;48.570;7.916;2023-04-12T02:07:09;4.43;;;2.60;;
10154;SDS011;5118;48.570;7.916;2023-04-12T02:09:39;5.43;;;2.90;;
10154;SDS011;5118;48.570;7.916;2023-04-12T02:12:07;3.27;;;2.40;;
10154;SDS011;5118;48.570;7.916;2023-04-12T02:14:36;2.93;;;2.27;;
10154;SDS011;5118;48.570;7.916;2023-04-12T02:17:05;5.13;;;2.50;;
10154;SDS011;5118;48.570;7.916;2023-04-12T02:19:36;4.27;;;2.40;;
10154;SDS011;5118;48.570;7.916;2023-04-12T02:22:04;4.17;;;2.40;;
10154;SDS011;5118;48.570;7.916;2023-04-12T02:24:33;4.00;;;2.60;;
10154;SDS011;5118;48.570;7.916;2023-04-12T02:27:02;4.47;;;2.60;;
10154;SDS011;5118;48.570;7.916;2023-04-12T02:29:31;4.13;;;2.70;;
10154;SDS011;5118;48.570;7.916;2023-04-12T02:31:59;4.23;;;2.30;;
10154;SDS011;5118;48.570;7.916;2023-04-12T02:34:29;5.30;;;2.70;;
10154;SDS011;5118;48.570;7.916;2023-04-12T02:37:09;5.07;;;2.50;;
10154;SDS011;5118;48.570;7.916;2023-04-12T02:39:39;3.83;;;2.37;;
10154;SDS011;5118;48.570;7.916;2023-04-12T02:42:09;4.47;;;2.50;;
10154;SDS011;5118;48.570;7.916;2023-04-12T02:44:38;4.30;;;2.33;;
10154;SDS011;5118;48.570;7.916;2023-04-12T02:47:11;4.10;;;2.50;;
10154;SDS011;5118;48.570;7.916;2023-04-12T02:49:45;4.60;;;2.70;;
10154;SDS011;5118;48.570;7.916;2023-04-12T02:52:16;3.93;;;2.73;;
10154;SDS011;5118;48.570;7.916;2023-04-12T02:54:59;4.43;;;2.73;;
10154;SDS011;5118;48.570;7.916;2023-04-12T02:57:28;5.43;;;2.97;;
10154;SDS011;5118;48.570;7.916;2023-04-12T02:59:56;3.87;;;2.80;;
10154;SDS011;5118;48.570;7.916;2023-04-12T03:02:39;5.60;;;2.87;;
10154;SDS011;5118;48.570;7.916;2023-04-12T03:05:14;4.57;;;2.60;;
10154;SDS011;5118;48.570;7.916;2023-04-12T03:07:43;3.43;;;2.60;;
10154;SDS011;5118;48.570;7.916;2023-04-12T03:10:14;5.83;;;2.83;;
10154;SDS011;5118;48.570;7.916;2023-04-12T03:12:52;4.13;;;2.50;;
10154;SDS011;5118;48.570;7.916;2023-04-12T03:15:28;3.73;;;2.40;;
10154;SDS011;5118;48.570;7.916;2023-04-12T03:17:56;5.00;;;2.50;;
10154;SDS011;5118;48.570;7.916;2023-04-12T03:20:30;4.13;;;2.90;;
10154;SDS011;5118;48.570;7.916;2023-04-12T03:23:05;3.93;;;2.73;;
10154;SDS011;5118;48.570;7.916;2023-04-12T03:25:36;4.90;;;2.80;;
10154;SDS011;5118;48.570;7.916;2023-04-12T03:28:25;3.40;;;2.90;;
10154;SDS011;5118;48.570;7.916;2023-04-12T03:30:55;4.97;;;3.10;;
10154;SDS011;5118;48.570;7.916;2023-04-12T03:33:30;5.30;;;2.90;;
10154;SDS011;5118;48.570;7.916;2023-04-12T03:36:04;5.13;;;2.90;;
10154;SDS011;5118;48.570;7.916;2023-04-12T03:38:34;4.43;;;3.13;;
10154;SDS011;5118;48.570;7.916;2023-04-12T03:41:04;6.47;;;3.40;;
10154;SDS011;5118;48.570;7.916;2023-04-12T03:43:36;5.30;;;3.20;;
10154;SDS011;5118;48.570;7.916;2023-04-12T03:46:14;4.10;;;3.00;;
10154;SDS011;5118;48.570;7.916;2023-04-12T03:48:43;3.23;;;2.70;;
10154;SDS011;5118;48.570;7.916;2023-04-12T03:51:15;3.33;;;2.70;;
10154;SDS011;5118;48.570;7.916;2023-04-12T03:53:43;4.80;;;2.77;;
10154;SDS011;5118;48.570;7.916;2023-04-12T03:56:14;3.63;;;2.87;;
10154;SDS011;5118;48.570;7.916;2023-04-12T03:58:46;4.00;;;2.73;;
10154;SDS011;5118;48.570;7.916;2023-04-12T04:01:15;3.63;;;2.57;;
10154;SDS011;5118;48.570;7.916;2023-04-12T04:03:43;3.53;;;2.50;;
10154;SDS011;5118;48.570;7.916;2023-04-12T04:06:25;4.73;;;2.57;;
10154;SDS011;5118;48.570;7.916;2023-04-12T04:08:55;5.60;;;2.50;;
10154;SDS011;5118;48.570;7.916;2023-04-12T04:11:25;3.27;;;2.50;;
10154;SDS011;5118;48.570;7.916;2023-04-12T04:14:02;3.27;;;2.60;;
10154;SDS011;5118;48.570;7.916;2023-04-12T04:16:30;4.10;;;2.40;;
10154;SDS011;5118;48.570;7.916;2023-04-12T04:19:01;4.43;;;2.90;;
10154;SDS011;5118;48.570;7.916;2023-04-12T04:21:30;2.70;;;2.20;;
10154;SDS011;5118;48.570;7.916;2023-04-12T04:23:59;3.43;;;2.43;;
10154;SDS011;5118;48.570;7.916;2023-04-12T04:26:33;4.13;;;2.67;;
10154;SDS011;5118;48.570;7.916;2023-04-12T04:29:21;3.40;;;2.30;;
10154;SDS011;5118;48.570;7.916;2023-04-12T04:31:51;3.93;;;2.50;;
10154;SDS011;5118;48.570;7.916;2023-04-12T04:34:21;3.53;;;2.30;;
10154;SDS011;5118;48.570;7.916;2023-04-12T04:37:12;4.83;;;2.50;;
10154;SDS011;5118;48.570;7.916;2023-04-12T04:39:43;4.70;;;2.67;;
10154;SDS011;5118;48.570;7.916;2023-04-12T04:42:11;3.30;;;2.50;;
10154;SDS011;5118;48.570;7.916;2023-04-12T04:44:53;3.70;;;2.70;;
10154;SDS011;5118;48.570;7.916;2023-04-12T04:47:34;4.17;;;2.77;;
10154;SDS011;5118;48.570;7.916;2023-04-12T04:50:03;4.67;;;3.17;;
10154;SDS011;5118;48.570;7.916;2023-04-12T04:52:34;5.33;;;3.20;;
10154;SDS011;5118;48.570;7.916;2023-04-12T04:55:09;11.27;;;8.40;;
10154;SDS011;5118;48.570;7.916;2023-04-12T04:57:42;10.10;;;7.17;;
10154;SDS011;5118;48.570;7.916;2023-04-12T05:00:12;3.70;;;3.27;;
10154;SDS011;5118;48.570;7.916;2023-04-12T05:02:45;3.67;;;2.90;;
10154;SDS011;5118;48.570;7.916;2023-04-12T05:05:21;5.23;;;3.43;;
10154;SDS011;5118;48.570;7.916;2023-04-12T05:07:59;4.57;;;3.10;;
10154;SDS011;5118;48.570;7.916;2023-04-12T05:10:30;8.90;;;5.90;;
10154;SDS011;5118;48.570;7.916;2023-04-12T05:13:01;6.30;;;5.53;;
10154;SDS011;5118;48.570;7.916;2023-04-12T05:15:29;8.47;;;7.37;;
10154;SDS011;5118;48.570;7.916;2023-04-12T05:17:58;8.80;;;7.60;;
10154;SDS011;5118;48.570;7.916;2023-04-12T05:20:28;6.57;;;5.50;;
10154;SDS011;5118;48.570;7.916;2023-04-12T05:22:57;6.83;;;6.17;;
10154;SDS011;5118;48.570;7.916;2023-04-12T05:25:27;7.93;;;6.20;;
10154;SDS011;5118;48.570;7.916;2023-04-12T05:28:08;11.87;;;9.10;;
10154;SDS011;5118;48.570;7.916;2023-04-12T05:30:40;4.90;;;3.37;;
10154;SDS011;5118;48.570;7.916;2023-04-12T05:33:10;7.53;;;5.07;;
10154;SDS011;5118;48.570;7.916;2023-04-12T05:35:43;6.20;;;4.40;;
10154;SDS011;5118;48.570;7.916;2023-04-12T05:38:12;5.27;;;3.70;;
10154;SDS011;5118;48.570;7.916;2023-04-12T05:40:44;2.87;;;2.57;;
10154;SDS011;5118;48.570;7.916;2023-04-12T05:43:15;4.40;;;3.67;;
10154;SDS011;5118;48.570;7.916;2023-04-12T05:45:43;6.67;;;3.27;;
10154;SDS011;5118;48.570;7.916;2023-04-12T05:48:12;4.23;;;2.77;;
10154;SDS011;5118;48.570;7.916;2023-04-12T05:50:40;3.67;;;2.60;;
10154;SDS011;5118;48.570;7.916;2023-04-12T05:53:16;5.53;;;2.80;;
10154;SDS011;5118;48.570;7.916;2023-04-12T05:55:46;4.30;;;2.83;;
10154;SDS011;5118;48.570;7.916;2023-04-12T05:58:16;4.97;;;2.80;;
10154;SDS011;5118;48.570;7.916;2023-04-12T06:00:48;5.93;;;2.73;;
10154;SDS011;5118;48.570;7.916;2023-04-12T06:03:16;4.53;;;2.97;;
10154;SDS011;5118;48.570;7.916;2023-04-12T06:05:45;4.70;;;2.77;;
10154;SDS011;5118;48.570;7.916;2023-04-12T06:08:14;5.10;;;2.70;;
10154;SDS011;5118;48.570;7.916;2023-04-12T06:10:42;3.97;;;2.57;;
10154;SDS011;5118;48.570;7.916;2023-04-12T06:13:13;4.63;;;2.83;;
10154;SDS011;5118;48.570;7.916;2023-04-12T06:15:41;5.00;;;3.00;;
10154;SDS011;5118;48.570;7.916;2023-04-12T06:18:10;4.67;;;3.00;;
10154;SDS011;5118;48.570;7.916;2023-04-12T06:20:39;4.00;;;2.70;;
10154;SDS011;5118;48.570;7.916;2023-04-12T06:23:08;6.57;;;2.83;;
10154;SDS011;5118;48.570;7.916;2023-04-12T06:25:36;3.67;;;2.80;;
10154;SDS011;5118;48.570;7.916;2023-04-12T06:28:05;4.53;;;2.60;;
10154;SDS011;5118;48.570;7.916;2023-04-12T06:30:42;5.53;;;2.60;;
10154;SDS011;5118;48.570;7.916;2023-04-12T06:33:10;3.93;;;2.10;;
10154;SDS011;5118;48.570;7.916;2023-04-12T06:35:38;3.10;;;2.30;;
10154;SDS011;5118;48.570;7.916;2023-04-12T06:38:07;4.27;;;2.30;;
10154;SDS011;5118;48.570;7.916;2023-04-12T06:40:35;3.23;;;2.40;;
10154;SDS011;5118;48.570;7.916;2023-04-12T06:43:04;3.57;;;2.27;;
10154;SDS011;5118;48.570;7.916;2023-04-12T06:45:32;4.37;;;2.50;;
10154;SDS011;5118;48.570;7.916;2023-04-12T06:48:02;3.50;;;2.40;;
10154;SDS011;5118;48.570;7.916;2023-04-12T06:50:31;5.00;;;2.27;;
10154;SDS011;5118;48.570;7.916;2023-04-12T06:53:00;5.40;;;2.70;;
10154;SDS011;5118;48.570;7.916;2023-04-12T06:55:28;4.57;;;2.40;;
10154;SDS011;5118;48.570;7.916;2023-04-12T06:57:57;4.20;;;2.40;;
10154;SDS011;5118;48.570;7.916;2023-04-12T07:00:25;3.70;;;2.43;;
10154;SDS011;5118;48.570;7.916;2023-04-12T07:02:53;4.17;;;2.30;;
10154;SDS011;5118;48.570;7.916;2023-04-12T07:05:23;3.63;;;2.50;;
10154;SDS011;5118;48.570;7.916;2023-04-12T07:07:52;3.47;;;2.20;;
10154;SDS011;5118;48.570;7.916;2023-04-12T07:10:21;4.10;;;2.50;;
10154;SDS011;5118;48.570;7.916;2023-04-12T07:12:49;3.63;;;2.20;;
10154;SDS011;5118;48.570;7.916;2023-04-12T07:15:17;3.67;;;2.50;;
10154;SDS011;5118;48.570;7.916;2023-04-12T07:17:46;3.80;;;2.27;;
10154;SDS011;5118;48.570;7.916;2023-04-12T07:20:14;4.57;;;2.80;;
10154;SDS011;5118;48.570;7.916;2023-04-12T07:22:44;3.30;;;2.40;;
10154;SDS011;5118;48.570;7.916;2023-04-12T07:25:13;3.90;;;2.83;;
10154;SDS011;5118;48.570;7.916;2023-04-12T07:27:41;5.63;;;2.80;;
10154;SDS011;5118;48.570;7.916;2023-04-12T07:30:10;3.70;;;2.50;;
10154;SDS011;5118;48.570;7.916;2023-04-12T07:32:39;3.97;;;2.50;;
10154;SDS011;5118;48.570;7.916;2023-04-12T07:35:08;3.83;;;2.90;;
10154;SDS011;5118;48.570;7.916;2023-04-12T07:37:37;3.53;;;2.93;;
10154;SDS011;5118;48.570;7.916;2023-04-12T07:40:07;6.00;;;2.83;;
10154;SDS011;5118;48.570;7.916;2023-04-12T07:42:36;3.80;;;2.80;;
10154;SDS011;5118;48.570;7.916;2023-04-12T07:45:05;5.20;;;2.57;;
10154;SDS011;5118;48.570;7.916;2023-04-12T07:47:34;4.23;;;3.13;;
10154;SDS011;5118;48.570;7.916;2023-04-12T07:50:04;4.30;;;2.80;;
10154;SDS011;5118;48.570;7.916;2023-04-12T07:52:33;5.07;;;2.70;;
10154;SDS011;5118;48.570;7.916;2023-04-12T07:55:02;5.53;;;2.80;;
10154;SDS011;5118;48.570;7.916;2023-04-12T07:57:32;4.17;;;2.93;;
10154;SDS011;5118;48.570;7.916;2023-04-12T08:00:01;3.70;;;2.80;;
10154;SDS011;5118;48.570;7.916;2023-04-12T08:02:38;5.37;;;3.20;;
10154;SDS011;5118;48.570;7.916;2023-04-12T08:05:07;3.40;;;2.80;;
10154;SDS011;5118;48.570;7.916;2023-04-12T08:07:36;6.03;;;3.17;;
10154;SDS011;5118;48.570;7.916;2023-04-12T08:10:05;4.70;;;3.10;;
10154;SDS011;5118;48.570;7.916;2023-04-12T08:12:36;4.67;;;3.30;;
10154;SDS011;5118;48.570;7.916;2023-04-12T08:15:04;3.63;;;3.00;;
10154;SDS011;5118;48.570;7.916;2023-04-12T08:17:33;3.67;;;2.80;;
10154;SDS011;5118;48.570;7.916;2023-04-12T08:20:02;4.67;;;3.30;;
10154;SDS011;5118;48.570;7.916;2023-04-12T08:22:31;5.43;;;3.53;;
10154;SDS011;5118;48.570;7.916;2023-04-12T08:25:00;6.47;;;3.20;;
10154;SDS011;5118;48.570;7.916;2023-04-12T08:27:30;5.73;;;3.00;;
10154;SDS011;5118;48.570;7.916;2023-04-12T08:29:59;5.17;;;3.30;;
10154;SDS011;5118;48.570;7.916;2023-04-12T08:32:28;4.37;;;2.80;;
10154;SDS011;5118;48.570;7.916;2023-04-12T08:34:57;4.10;;;3.10;;
10154;SDS011;5118;48.570;7.916;2023-04-12T08:37:26;6.37;;;3.00;;
10154;SDS011;5118;48.570;7.916;2023-04-12T08:39:54;4.23;;;3.03;;
10154;SDS011;5118;48.570;7.916;2023-04-12T08:42:23;6.20;;;3.13;;
10154;SDS011;5118;48.570;7.916;2023-04-12T08:44:51;5.00;;;3.20;;
10154;SDS011;5118;48.570;7.916;2023-04-12T08:47:21;3.37;;;2.60;;
10154;SDS011;5118;48.570;7.916;2023-04-12T08:49:49;6.67;;;3.23;;
10154;SDS011;5118;48.570;7.916;2023-04-12T08:52:18;5.60;;;3.10;;
10154;SDS011;5118;48.570;7.916;2023-04-12T08:54:46;5.70;;;2.90;;
10154;SDS011;5118;48.570;7.916;2023-04-12T08:57:14;5.97;;;2.83;;
10154;SDS011;5118;48.570;7.916;2023-04-12T08:59:46;3.93;;;2.97;;
10154;SDS011;5118;48.570;7.916;2023-04-12T09:02:18;4.50;;;2.83;;
10154;SDS011;5118;48.570;7.916;2023-04-12T09:04:49;5.23;;;2.80;;
10154;SDS011;5118;48.570;7.916;2023-04-12T09:07:19;6.83;;;3.37;;
10154;SDS011;5118;48.570;7.916;2023-04-12T09:09:49;5.47;;;2.80;;
10154;SDS011;5118;48.570;7.916;2023-04-12T09:12:18;6.67;;;2.90;;
10154;SDS011;5118;48.570;7.916;2023-04-12T09:15:03;3.43;;;2.40;;
10154;SDS011;5118;48.570;7.916;2023-04-12T09:17:34;4.17;;;2.77;;
10154;SDS011;5118;48.570;7.916;2023-04-12T09:22:52;5.60;;;2.60;;
10154;SDS011;5118;48.570;7.916;2023-04-12T09:30:53;3.97;;;2.77;;
10154;SDS011;5118;48.570;7.916;2023-04-12T09:33:31;4.83;;;2.87;;
10154;SDS011;5118;48.570;7.916;2023-04-12T09:36:02;4.90;;;4.23;;
10154;SDS011;5118;48.570;7.916;2023-04-12T09:38:32;3.63;;;2.70;;
10154;SDS011;5118;48.570;7.916;2023-04-12T09:41:14;4.23;;;2.70;;
10154;SDS011;5118;48.570;7.916;2023-04-12T09:43:47;3.77;;;2.53;;
10154;SDS011;5118;48.570;7.916;2023-04-12T09:46:15;3.33;;;2.50;;
10154;SDS011;5118;48.570;7.916;2023-04-12T09:48:47;3.37;;;2.43;;
10154;SDS011;5118;48.570;7.916;2023-04-12T09:51:24;3.40;;;2.50;;
10154;SDS011;5118;48.570;7.916;2023-04-12T09:53:55;5.10;;;2.83;;
10154;SDS011;5118;48.570;7.916;2023-04-12T09:56:27;5.70;;;4.50;;
10154;SDS011;5118;48.570;7.916;2023-04-12T09:59:01;6.03;;;3.40;;
10154;SDS011;5118;48.570;7.916;2023-04-12T10:01:32;5.70;;;2.80;;
10154;SDS011;5118;48.570;7.916;2023-04-12T10:04:02;4.03;;;3.60;;
10154;SDS011;5118;48.570;7.916;2023-04-12T10:06:35;5.33;;;3.30;;
10154;SDS011;5118;48.570;7.916;2023-04-12T10:09:04;3.87;;;2.40;;
10154;SDS011;5118;48.570;7.916;2023-04-12T10:11:34;3.70;;;2.27;;
10154;SDS011;5118;48.570;7.916;2023-04-12T10:14:06;3.67;;;2.53;;
10154;SDS011;5118;48.570;7.916;2023-04-12T10:16:35;7.60;;;2.50;;
10154;SDS011;5118;48.570;7.916;2023-04-12T10:19:05;3.50;;;2.50;;
10154;SDS011;5118;48.570;7.916;2023-04-12T10:21:37;3.17;;;2.50;;
10154;SDS011;5118;48.570;7.916;2023-04-12T10:24:05;3.67;;;2.20;;
10154;SDS011;5118;48.570;7.916;2023-04-12T10:26:34;3.73;;;2.30;;
10154;SDS011;5118;48.570;7.916;2023-04-12T10:29:20;4.97;;;2.30;;
10154;SDS011;5118;48.570;7.916;2023-04-12T10:31:50;4.23;;;2.53;;
10154;SDS011;5118;48.570;7.916;2023-04-12T10:34:22;4.37;;;2.37;;
10154;SDS011;5118;48.570;7.916;2023-04-12T10:36:53;3.67;;;2.13;;
10154;SDS011;5118;48.570;7.916;2023-04-12T10:39:36;3.53;;;2.40;;
10154;SDS011;5118;48.570;7.916;2023-04-12T10:42:23;3.50;;;2.70;;
10154;SDS011;5118;48.570;7.916;2023-04-12T10:44:53;6.63;;;2.77;;
10154;SDS011;5118;48.570;7.916;2023-04-12T10:50:29;2.70;;;2.27;;
10154;SDS011;5118;48.570;7.916;2023-04-12T10:53:21;4.97;;;2.30;;
10154;SDS011;5118;48.570;7.916;2023-04-12T10:55:53;3.03;;;2.30;;
10154;SDS011;5118;48.570;7.916;2023-04-12T11:01:23;3.37;;;2.23;;
10154;SDS011;5118;48.570;7.916;2023-04-12T11:04:05;4.50;;;2.50;;
10154;SDS011;5118;48.570;7.916;2023-04-12T11:06:53;3.27;;;2.40;;
10154;SDS011;5118;48.570;7.916;2023-04-12T11:09:41;4.53;;;2.60;;
10154;SDS011;5118;48.570;7.916;2023-04-12T11:12:18;5.17;;;2.30;;
10154;SDS011;5118;48.570;7.916;2023-04-12T11:14:53;3.57;;;2.30;;
10154;SDS011;5118;48.570;7.916;2023-04-12T11:17:51;6.07;;;2.57;;
10154;SDS011;5118;48.570;7.916;2023-04-12T11:20:21;5.30;;;2.47;;
10154;SDS011;5118;48.570;7.916;2023-04-12T11:22:49;5.50;;;2.27;;
10154;SDS011;5118;48.570;7.916;2023-04-12T11:25:24;5.93;;;2.60;;
10154;SDS011;5118;48.570;7.916;2023-04-12T11:27:52;2.93;;;2.20;;
10154;SDS011;5118;48.570;7.916;2023-04-12T11:30:25;2.77;;;2.40;;
10154;SDS011;5118;48.570;7.916;2023-04-12T11:32:54;4.70;;;2.50;;
10154;SDS011;5118;48.570;7.916;2023-04-12T11:35:22;3.57;;;2.40;;
10154;SDS011;5118;48.570;7.916;2023-04-12T11:37:53;3.93;;;2.50;;
10154;SDS011;5118;48.570;7.916;2023-04-12T11:40:25;5.97;;;3.00;;
10154;SDS011;5118;48.570;7.916;2023-04-12T11:42:53;3.30;;;2.50;;
10154;SDS011;5118;48.570;7.916;2023-04-12T11:45:23;5.53;;;2.20;;
10154;SDS011;5118;48.570;7.916;2023-04-12T11:47:52;4.23;;;2.30;;
10154;SDS011;5118;48.570;7.916;2023-04-12T11:50:26;4.67;;;2.50;;
10154;SDS011;5118;48.570;7.916;2023-04-12T11:53:07;3.90;;;2.17;;
10154;SDS011;5118;48.570;7.916;2023-04-12T11:55:39;3.80;;;2.20;;
10154;SDS011;5118;48.570;7.916;2023-04-12T11:58:08;3.10;;;2.33;;
10154;SDS011;5118;48.570;7.916;2023-04-12T12:00:36;3.80;;;2.50;;
10154;SDS011;5118;48.570;7.916;2023-04-12T12:03:04;4.33;;;2.77;;
10154;SDS011;5118;48.570;7.916;2023-04-12T12:05:35;5.93;;;2.50;;
10154;SDS011;5118;48.570;7.916;2023-04-12T12:08:04;5.03;;;2.43;;
10154;SDS011;5118;48.570;7.916;2023-04-12T12:10:34;5.80;;;2.70;;
10154;SDS011;5118;48.570;7.916;2023-04-12T12:13:19;3.03;;;2.10;;
10154;SDS011;5118;48.570;7.916;2023-04-12T12:15:47;3.20;;;2.50;;
10154;SDS011;5118;48.570;7.916;2023-04-12T12:18:18;4.30;;;2.27;;
10154;SDS011;5118;48.570;7.916;2023-04-12T12:20:52;4.40;;;2.20;;
10154;SDS011;5118;48.570;7.916;2023-04-12T12:23:28;5.43;;;2.50;;
10154;SDS011;5118;48.570;7.916;2023-04-12T12:25:57;2.40;;;2.00;;
10154;SDS011;5118;48.570;7.916;2023-04-12T12:28:47;4.10;;;2.10;;
10154;SDS011;5118;48.570;7.916;2023-04-12T12:31:17;4.23;;;2.20;;
10154;SDS011;5118;48.570;7.916;2023-04-12T12:33:47;2.80;;;1.90;;
10154;SDS011;5118;48.570;7.916;2023-04-12T12:36:18;3.97;;;2.10;;
10154;SDS011;5118;48.570;7.916;2023-04-12T12:38:46;3.00;;;2.00;;
10154;SDS011;5118;48.570;7.916;2023-04-12T12:41:17;3.73;;;2.10;;
10154;SDS011;5118;48.570;7.916;2023-04-12T12:43:48;5.23;;;2.47;;
10154;SDS011;5118;48.570;7.916;2023-04-12T12:46:18;3.30;;;1.90;;
10154;SDS011;5118;48.570;7.916;2023-04-12T12:48:47;2.90;;;2.03;;
10154;SDS011;5118;48.570;7.916;2023-04-12T12:51:15;4.43;;;2.30;;
10154;SDS011;5118;48.570;7.916;2023-04-12T12:53:45;3.37;;;2.20;;
10154;SDS011;5118;48.570;7.916;2023-04-12T12:56:14;4.47;;;2.00;;
10154;SDS011;5118;48.570;7.916;2023-04-12T12:58:43;2.53;;;2.17;;
10154;SDS011;5118;48.570;7.916;2023-04-12T13:01:13;4.27;;;2.37;;
10154;SDS011;5118;48.570;7.916;2023-04-12T13:03:42;5.70;;;2.33;;
10154;SDS011;5118;48.570;7.916;2023-04-12T13:06:10;3.30;;;2.30;;
10154;SDS011;5118;48.570;7.916;2023-04-12T13:08:38;7.27;;;2.30;;
10154;SDS011;5118;48.570;7.916;2023-04-12T13:11:07;6.40;;;2.67;;
10154;SDS011;5118;48.570;7.916;2023-04-12T13:13:35;4.77;;;2.50;;
10154;SDS011;5118;48.570;7.916;2023-04-12T13:16:04;6.17;;;3.13;;
10154;SDS011;5118;48.570;7.916;2023-04-12T13:18:34;4.03;;;2.67;;
10154;SDS011;5118;48.570;7.916;2023-04-12T13:21:03;5.37;;;2.93;;
10154;SDS011;5118;48.570;7.916;2023-04-12T13:23:32;3.37;;;2.13;;
10154;SDS011;5118;48.570;7.916;2023-04-12T13:26:00;3.03;;;2.17;;
10154;SDS011;5118;48.570;7.916;2023-04-12T13:28:28;4.17;;;2.23;;
10154;SDS011;5118;48.570;7.916;2023-04-12T13:30:56;3.13;;;2.30;;
10154;SDS011;5118;48.570;7.916;2023-04-12T13:33:25;3.70;;;1.90;;
10154;SDS011;5118;48.570;7.916;2023-04-12T13:35:54;3.10;;;1.90;;
10154;SDS011;5118;48.570;7.916;2023-04-12T13:38:23;3.23;;;1.93;;
10154;SDS011;5118;48.570;7.916;2023-04-12T13:40:51;3.20;;;1.90;;
10154;SDS011;5118;48.570;7.916;2023-04-12T13:43:21;5.63;;;2.00;;
10154;SDS011;5118;48.570;7.916;2023-04-12T13:45:50;4.17;;;2.30;;
10154;SDS011;5118;48.570;7.916;2023-04-12T13:48:18;4.70;;;1.90;;
10154;SDS011;5118;48.570;7.916;2023-04-12T13:50:46;2.70;;;2.17;;
10154;SDS011;5118;48.570;7.916;2023-04-12T13:53:19;3.63;;;1.60;;
10154;SDS011;5118;48.570;7.916;2023-04-12T13:55:47;4.67;;;1.80;;
10154;SDS011;5118;48.570;7.916;2023-04-12T13:58:15;4.20;;;2.10;;
10154;SDS011;5118;48.570;7.916;2023-04-12T14:00:44;11.73;;;2.17;;
10154;SDS011;5118;48.570;7.916;2023-04-12T14:03:13;6.60;;;2.00;;
10154;SDS011;5118;48.570;7.916;2023-04-12T14:05:41;5.10;;;1.83;;
10154;SDS011;5118;48.570;7.916;2023-04-12T14:08:10;3.23;;;1.50;;
10154;SDS011;5118;48.570;7.916;2023-04-12T14:10:39;6.37;;;1.40;;
10154;SDS011;5118;48.570;7.916;2023-04-12T14:13:08;6.63;;;1.30;;
10154;SDS011;5118;48.570;7.916;2023-04-12T14:15:36;1.80;;;1.07;;
10154;SDS011;5118;48.570;7.916;2023-04-12T14:18:04;1.10;;;1.00;;
10154;SDS011;5118;48.570;7.916;2023-04-12T14:20:33;0.90;;;0.90;;
10154;SDS011;5118;48.570;7.916;2023-04-12T14:23:01;0.90;;;0.90;;
10154;SDS011;5118;48.570;7.916;2023-04-12T14:25:33;1.03;;;0.93;;
10154;SDS011;5118;48.570;7.916;2023-04-12T14:28:04;0.50;;;0.43;;
10154;SDS011;5118;48.570;7.916;2023-04-12T14:30:32;0.93;;;0.90;;
10154;SDS011;5118;48.570;7.916;2023-04-12T14:33:00;1.30;;;0.80;;
10154;SDS011;5118;48.570;7.916;2023-04-12T14:35:29;1.77;;;0.83;;
10154;SDS011;5118;48.570;7.916;2023-04-12T14:37:57;1.10;;;0.90;;
10154;SDS011;5118;48.570;7.916;2023-04-12T14:40:26;1.33;;;0.97;;
10154;SDS011;5118;48.570;7.916;2023-04-12T14:42:54;0.80;;;0.80;;
10154;SDS011;5118;48.570;7.916;2023-04-12T14:45:24;1.63;;;1.20;;
10154;SDS011;5118;48.570;7.916;2023-04-12T14:47:53;1.43;;;1.30;;
10154;SDS011;5118;48.570;7.916;2023-04-12T14:50:22;1.30;;;1.20;;
10154;SDS011;5118;48.570;7.916;2023-04-12T14:52:51;1.83;;;1.57;;
10154;SDS011;5118;48.570;7.916;2023-04-12T14:55:20;1.43;;;1.23;;
10154;SDS011;5118;48.570;7.916;2023-04-12T14:57:48;2.17;;;1.40;;
10154;SDS011;5118;48.570;7.916;2023-04-12T15:00:17;1.00;;;1.00;;
10154;SDS011;5118;48.570;7.916;2023-04-12T15:02:48;1.37;;;1.23;;
10154;SDS011;5118;48.570;7.916;2023-04-12T15:05:16;0.90;;;0.90;;
10154;SDS011;5118;48.570;7.916;2023-04-12T15:07:45;0.87;;;0.80;;
10154;SDS011;5118;48.570;7.916;2023-04-12T15:10:15;0.90;;;0.90;;
10154;SDS011;5118;48.570;7.916;2023-04-12T15:12:44;4.23;;;1.10;;
10154;SDS011;5118;48.570;7.916;2023-04-12T15:15:12;3.27;;;1.03;;
10154;SDS011;5118;48.570;7.916;2023-04-12T15:17:41;2.10;;;1.00;;
10154;SDS011;5118;48.570;7.916;2023-04-12T15:20:11;1.10;;;1.00;;
10154;SDS011;5118;48.570;7.916;2023-04-12T15:22:42;1.40;;;1.00;;
10154;SDS011;5118;48.570;7.916;2023-04-12T15:25:11;1.30;;;1.20;;
10154;SDS011;5118;48.570;7.916;2023-04-12T15:27:39;1.47;;;1.27;;
10154;SDS011;5118;48.570;7.916;2023-04-12T15:30:09;1.97;;;1.10;;
10154;SDS011;5118;48.570;7.916;2023-04-12T15:32:40;1.30;;;1.20;;
10154;SDS011;5118;48.570;7.916;2023-04-12T15:35:09;1.17;;;1.07;;
10154;SDS011;5118;48.570;7.916;2023-04-12T15:37:41;4.43;;;1.30;;